sensor_id;sensor_type;location;lat;lon;timestamp;temperature;humidity
56137;DHT22;42008;52.934;5.884;2023-03-12T00:01:45;1.10;1.00
56137;DHT22;42008;52.934;5.884;2023-03-12T00:04:10;1.30;1.00
56137;DHT22;42008;52.934;5.884;2023-03-12T00:06:36;1.40;1.00
56137;DHT22;42008;52.934;5.884;2023-03-12T00:09:02;1.60;1.00
56137;DHT22;42008;52.934;5.884;2023-03-12T00:11:29;1.20;1.00
56137;DHT22;42008;52.934;5.884;2023-03-12T00:13:56;1.50;1.00
56137;DHT22;42008;52.934;5.884;2023-03-12T00:16:22;2.20;19.10
56137;DHT22;42008;52.934;5.884;2023-03-12T00:18:50;1.20;33.50
56137;DHT22;42008;52.934;5.884;2023-03-12T00:21:16;2.40;44.90
56137;DHT22;42008;52.934;5.884;2023-03-12T00:23:42;1.70;41.50
56137;DHT22;42008;52.934;5.884;2023-03-12T00:26:10;1.40;45.40
56137;DHT22;42008;52.934;5.884;2023-03-12T00:28:36;1.40;51.90
56137;DHT22;42008;52.934;5.884;2023-03-12T00:31:08;1.60;48.50
56137;DHT22;42008;52.934;5.884;2023-03-12T00:33:37;1.20;51.90
56137;DHT22;42008;52.934;5.884;2023-03-12T00:36:03;1.50;88.80
56137;DHT22;42008;52.934;5.884;2023-03-12T00:38:29;2.40;93.80
56137;DHT22;42008;52.934;5.884;2023-03-12T00:40:55;1.50;99.90
56137;DHT22;42008;52.934;5.884;2023-03-12T00:43:20;3.00;99.90
56137;DHT22;42008;52.934;5.884;2023-03-12T00:45:46;2.70;99.90
56137;DHT22;42008;52.934;5.884;2023-03-12T00:48:11;1.10;99.90
56137;DHT22;42008;52.934;5.884;2023-03-12T00:50:37;2.70;99.90
56137;DHT22;42008;52.934;5.884;2023-03-12T00:53:03;2.50;99.90
56137;DHT22;42008;52.934;5.884;2023-03-12T00:55:28;1.60;99.90
56137;DHT22;42008;52.934;5.884;2023-03-12T00:57:54;1.90;99.90
56137;DHT22;42008;52.934;5.884;2023-03-12T01:00:20;2.20;99.90
56137;DHT22;42008;52.934;5.884;2023-03-12T01:02:46;2.50;99.90
56137;DHT22;42008;52.934;5.884;2023-03-12T01:05:12;2.40;99.90
56137;DHT22;42008;52.934;5.884;2023-03-12T01:07:38;2.30;99.90
56137;DHT22;42008;52.934;5.884;2023-03-12T01:10:05;1.50;99.90
56137;DHT22;42008;52.934;5.884;2023-03-12T01:12:31;2.80;99.90
56137;DHT22;42008;52.934;5.884;2023-03-12T01:14:57;2.00;99.90
56137;DHT22;42008;52.934;5.884;2023-03-12T01:17:22;2.00;99.90
56137;DHT22;42008;52.934;5.884;2023-03-12T01:19:48;1.90;99.90
56137;DHT22;42008;52.934;5.884;2023-03-12T01:22:13;2.40;99.90
56137;DHT22;42008;52.934;5.884;2023-03-12T01:24:39;2.30;99.90
56137;DHT22;42008;52.934;5.884;2023-03-12T01:27:05;2.60;99.90
56137;DHT22;42008;52.934;5.884;2023-03-12T01:29:30;1.60;99.90
56137;DHT22;42008;52.934;5.884;2023-03-12T01:31:56;1.70;99.90
56137;DHT22;42008;52.934;5.884;2023-03-12T01:34:21;2.40;99.90
56137;DHT22;42008;52.934;5.884;2023-03-12T01:36:47;1.90;99.90
56137;DHT22;42008;52.934;5.884;2023-03-12T01:39:13;2.30;99.90
56137;DHT22;42008;52.934;5.884;2023-03-12T01:41:39;2.70;99.90
56137;DHT22;42008;52.934;5.884;2023-03-12T01:44:06;3.00;99.90
56137;DHT22;42008;52.934;5.884;2023-03-12T01:46:40;2.70;99.90
56137;DHT22;42008;52.934;5.884;2023-03-12T01:49:46;2.60;99.90
56137;DHT22;42008;52.934;5.884;2023-03-12T01:52:19;3.10;99.90
56137;DHT22;42008;52.934;5.884;2023-03-12T01:57:35;2.50;99.90
56137;DHT22;42008;52.934;5.884;2023-03-12T02:00:08;3.60;99.90
56137;DHT22;42008;52.934;5.884;2023-03-12T02:02:34;2.90;99.90
56137;DHT22;42008;52.934;5.884;2023-03-12T02:07:35;3.10;99.90
56137;DHT22;42008;52.934;5.884;2023-03-12T02:10:01;2.80;99.90
56137;DHT22;42008;52.934;5.884;2023-03-12T02:12:27;3.10;99.90
56137;DHT22;42008;52.934;5.884;2023-03-12T02:14:53;3.70;99.90
56137;DHT22;42008;52.934;5.884;2023-03-12T02:17:18;4.00;99.90
56137;DHT22;42008;52.934;5.884;2023-03-12T02:22:36;2.80;99.90
56137;DHT22;42008;52.934;5.884;2023-03-12T02:25:11;3.10;99.90
56137;DHT22;42008;52.934;5.884;2023-03-12T02:27:37;2.70;99.90
56137;DHT22;42008;52.934;5.884;2023-03-12T02:30:04;2.70;99.90
56137;DHT22;42008;52.934;5.884;2023-03-12T02:32:34;3.30;93.90
56137;DHT22;42008;52.934;5.884;2023-03-12T02:35:03;3.80;18.60
56137;DHT22;42008;52.934;5.884;2023-03-12T02:37:29;2.50;1.00
56137;DHT22;42008;52.934;5.884;2023-03-12T02:40:21;3.10;1.00
56137;DHT22;42008;52.934;5.884;2023-03-12T02:42:48;2.90;1.00
56137;DHT22;42008;52.934;5.884;2023-03-12T02:45:13;2.90;1.00
56137;DHT22;42008;52.934;5.884;2023-03-12T02:47:39;4.20;99.90
56137;DHT22;42008;52.934;5.884;2023-03-12T02:50:05;3.80;99.90
56137;DHT22;42008;52.934;5.884;2023-03-12T02:52:31;3.80;99.90
56137;DHT22;42008;52.934;5.884;2023-03-12T02:55:00;2.80;99.90
56137;DHT22;42008;52.934;5.884;2023-03-12T02:57:26;2.70;99.90
56137;DHT22;42008;52.934;5.884;2023-03-12T02:59:51;2.60;99.90
56137;DHT22;42008;52.934;5.884;2023-03-12T03:02:17;2.50;99.90
56137;DHT22;42008;52.934;5.884;2023-03-12T03:04:42;2.50;82.70
56137;DHT22;42008;52.934;5.884;2023-03-12T03:07:08;2.40;5.70
56137;DHT22;42008;52.934;5.884;2023-03-12T03:09:33;2.30;1.00
56137;DHT22;42008;52.934;5.884;2023-03-12T03:11:59;3.20;1.00
56137;DHT22;42008;52.934;5.884;2023-03-12T03:14:25;2.60;1.00
56137;DHT22;42008;52.934;5.884;2023-03-12T03:16:50;2.50;1.00
56137;DHT22;42008;52.934;5.884;2023-03-12T03:19:16;2.30;99.90
56137;DHT22;42008;52.934;5.884;2023-03-12T03:21:42;3.00;99.90
56137;DHT22;42008;52.934;5.884;2023-03-12T03:24:08;2.90;99.90
56137;DHT22;42008;52.934;5.884;2023-03-12T03:26:34;2.80;99.90
56137;DHT22;42008;52.934;5.884;2023-03-12T03:28:59;2.20;99.90
56137;DHT22;42008;52.934;5.884;2023-03-12T03:31:25;2.70;99.90
56137;DHT22;42008;52.934;5.884;2023-03-12T03:33:51;3.30;1.00
56137;DHT22;42008;52.934;5.884;2023-03-12T03:36:16;2.70;1.00
56137;DHT22;42008;52.934;5.884;2023-03-12T03:38:43;2.30;1.00
56137;DHT22;42008;52.934;5.884;2023-03-12T03:41:15;3.30;99.90
56137;DHT22;42008;52.934;5.884;2023-03-12T03:43:40;2.90;99.90
56137;DHT22;42008;52.934;5.884;2023-03-12T03:46:06;2.20;99.90
56137;DHT22;42008;52.934;5.884;2023-03-12T03:48:32;2.60;99.90
56137;DHT22;42008;52.934;5.884;2023-03-12T03:51:02;2.30;90.20
56137;DHT22;42008;52.934;5.884;2023-03-12T03:53:28;2.70;28.80
56137;DHT22;42008;52.934;5.884;2023-03-12T03:55:53;2.60;1.00
56137;DHT22;42008;52.934;5.884;2023-03-12T03:58:19;2.90;1.00
56137;DHT22;42008;52.934;5.884;2023-03-12T04:00:45;2.50;1.00
56137;DHT22;42008;52.934;5.884;2023-03-12T04:03:11;2.60;1.00
56137;DHT22;42008;52.934;5.884;2023-03-12T04:05:38;2.10;1.00
56137;DHT22;42008;52.934;5.884;2023-03-12T04:08:04;2.00;1.00
56137;DHT22;42008;52.934;5.884;2023-03-12T04:10:30;1.80;99.90
56137;DHT22;42008;52.934;5.884;2023-03-12T04:12:56;1.80;99.90
56137;DHT22;42008;52.934;5.884;2023-03-12T04:15:22;2.90;99.90
56137;DHT22;42008;52.934;5.884;2023-03-12T04:17:48;2.20;99.90
56137;DHT22;42008;52.934;5.884;2023-03-12T04:20:13;2.00;99.90
56137;DHT22;42008;52.934;5.884;2023-03-12T04:22:39;2.20;99.90
56137;DHT22;42008;52.934;5.884;2023-03-12T04:25:05;2.10;99.90
56137;DHT22;42008;52.934;5.884;2023-03-12T04:27:32;2.60;99.90
56137;DHT22;42008;52.934;5.884;2023-03-12T04:29:58;1.80;99.90
56137;DHT22;42008;52.934;5.884;2023-03-12T04:32:23;2.10;99.90
56137;DHT22;42008;52.934;5.884;2023-03-12T04:34:49;2.40;99.90
56137;DHT22;42008;52.934;5.884;2023-03-12T04:37:14;1.60;99.90
56137;DHT22;42008;52.934;5.884;2023-03-12T04:39:41;2.40;99.90
56137;DHT22;42008;52.934;5.884;2023-03-12T04:42:07;1.70;99.90
56137;DHT22;42008;52.934;5.884;2023-03-12T04:44:34;2.10;99.90
56137;DHT22;42008;52.934;5.884;2023-03-12T04:47:00;1.20;99.90
56137;DHT22;42008;52.934;5.884;2023-03-12T04:49:26;2.00;99.90
56137;DHT22;42008;52.934;5.884;2023-03-12T04:51:51;2.20;99.90
56137;DHT22;42008;52.934;5.884;2023-03-12T04:54:17;2.30;99.90
56137;DHT22;42008;52.934;5.884;2023-03-12T04:56:45;2.60;99.90
56137;DHT22;42008;52.934;5.884;2023-03-12T04:59:11;1.50;99.90
56137;DHT22;42008;52.934;5.884;2023-03-12T05:01:37;2.40;99.90
56137;DHT22;42008;52.934;5.884;2023-03-12T05:04:04;1.20;99.90
56137;DHT22;42008;52.934;5.884;2023-03-12T05:06:30;2.20;99.90
56137;DHT22;42008;52.934;5.884;2023-03-12T05:08:55;2.20;99.90
56137;DHT22;42008;52.934;5.884;2023-03-12T05:11:21;2.40;99.90
56137;DHT22;42008;52.934;5.884;2023-03-12T05:13:47;1.90;99.90
56137;DHT22;42008;52.934;5.884;2023-03-12T05:16:15;1.70;99.90
56137;DHT22;42008;52.934;5.884;2023-03-12T05:18:42;2.30;99.90
56137;DHT22;42008;52.934;5.884;2023-03-12T05:21:11;2.20;99.90
56137;DHT22;42008;52.934;5.884;2023-03-12T05:23:37;2.10;45.00
56137;DHT22;42008;52.934;5.884;2023-03-12T05:26:04;1.70;20.70
56137;DHT22;42008;52.934;5.884;2023-03-12T05:28:31;2.30;1.00
56137;DHT22;42008;52.934;5.884;2023-03-12T05:30:58;2.70;1.00
56137;DHT22;42008;52.934;5.884;2023-03-12T05:33:25;2.20;1.00
56137;DHT22;42008;52.934;5.884;2023-03-12T05:35:51;2.60;3.20
56137;DHT22;42008;52.934;5.884;2023-03-12T05:38:17;2.00;98.30
56137;DHT22;42008;52.934;5.884;2023-03-12T05:40:49;2.50;99.90
56137;DHT22;42008;52.934;5.884;2023-03-12T05:43:15;2.60;99.90
56137;DHT22;42008;52.934;5.884;2023-03-12T05:45:40;1.70;99.90
56137;DHT22;42008;52.934;5.884;2023-03-12T05:48:06;2.30;99.90
56137;DHT22;42008;52.934;5.884;2023-03-12T05:50:31;2.60;99.90
56137;DHT22;42008;52.934;5.884;2023-03-12T05:52:57;1.90;99.90
56137;DHT22;42008;52.934;5.884;2023-03-12T05:55:22;2.30;99.90
56137;DHT22;42008;52.934;5.884;2023-03-12T05:57:48;2.60;99.90
56137;DHT22;42008;52.934;5.884;2023-03-12T06:00:14;2.40;99.90
56137;DHT22;42008;52.934;5.884;2023-03-12T06:02:39;2.50;99.90
56137;DHT22;42008;52.934;5.884;2023-03-12T06:05:05;1.80;99.90
56137;DHT22;42008;52.934;5.884;2023-03-12T06:07:31;1.50;99.90
56137;DHT22;42008;52.934;5.884;2023-03-12T06:09:57;2.30;99.90
56137;DHT22;42008;52.934;5.884;2023-03-12T06:12:24;1.50;99.90
56137;DHT22;42008;52.934;5.884;2023-03-12T06:14:49;2.00;99.90
56137;DHT22;42008;52.934;5.884;2023-03-12T06:17:15;2.20;99.90
56137;DHT22;42008;52.934;5.884;2023-03-12T06:19:41;2.20;99.90
56137;DHT22;42008;52.934;5.884;2023-03-12T06:22:06;1.30;99.90
56137;DHT22;42008;52.934;5.884;2023-03-12T06:24:32;2.60;99.90
56137;DHT22;42008;52.934;5.884;2023-03-12T06:26:57;2.20;99.90
56137;DHT22;42008;52.934;5.884;2023-03-12T06:29:23;2.30;99.90
56137;DHT22;42008;52.934;5.884;2023-03-12T06:31:48;2.20;1.00
56137;DHT22;42008;52.934;5.884;2023-03-12T06:34:16;2.10;1.00
56137;DHT22;42008;52.934;5.884;2023-03-12T06:36:42;1.90;1.00
56137;DHT22;42008;52.934;5.884;2023-03-12T06:39:07;1.70;99.90
56137;DHT22;42008;52.934;5.884;2023-03-12T06:41:34;2.50;99.90
56137;DHT22;42008;52.934;5.884;2023-03-12T06:44:00;2.70;99.90
56137;DHT22;42008;52.934;5.884;2023-03-12T06:46:28;1.80;99.90
56137;DHT22;42008;52.934;5.884;2023-03-12T06:48:54;2.40;1.00
56137;DHT22;42008;52.934;5.884;2023-03-12T06:51:19;2.40;1.00
56137;DHT22;42008;52.934;5.884;2023-03-12T06:53:45;2.10;1.00
56137;DHT22;42008;52.934;5.884;2023-03-12T06:56:11;2.60;1.00
56137;DHT22;42008;52.934;5.884;2023-03-12T06:58:37;2.00;1.00
56137;DHT22;42008;52.934;5.884;2023-03-12T07:01:03;2.60;3.30
56137;DHT22;42008;52.934;5.884;2023-03-12T07:03:28;2.40;71.70
56137;DHT22;42008;52.934;5.884;2023-03-12T07:05:55;2.50;99.90
56137;DHT22;42008;52.934;5.884;2023-03-12T07:08:21;2.20;99.90
56137;DHT22;42008;52.934;5.884;2023-03-12T07:10:47;2.50;99.90
56137;DHT22;42008;52.934;5.884;2023-03-12T07:13:13;2.50;99.90
56137;DHT22;42008;52.934;5.884;2023-03-12T07:15:38;2.20;99.90
56137;DHT22;42008;52.934;5.884;2023-03-12T07:18:09;2.20;1.00
56137;DHT22;42008;52.934;5.884;2023-03-12T07:20:40;2.50;1.00
56137;DHT22;42008;52.934;5.884;2023-03-12T07:23:06;3.10;1.00
56137;DHT22;42008;52.934;5.884;2023-03-12T07:25:40;2.20;38.80
56137;DHT22;42008;52.934;5.884;2023-03-12T07:28:06;2.60;99.90
56137;DHT22;42008;52.934;5.884;2023-03-12T07:30:32;2.30;99.90
56137;DHT22;42008;52.934;5.884;2023-03-12T07:33:09;3.40;99.90
56137;DHT22;42008;52.934;5.884;2023-03-12T07:35:35;2.70;99.90
56137;DHT22;42008;52.934;5.884;2023-03-12T07:38:03;3.80;99.90
56137;DHT22;42008;52.934;5.884;2023-03-12T07:40:28;2.70;1.00
56137;DHT22;42008;52.934;5.884;2023-03-12T07:42:54;2.80;1.00
56137;DHT22;42008;52.934;5.884;2023-03-12T07:45:20;3.50;1.00
56137;DHT22;42008;52.934;5.884;2023-03-12T07:47:46;3.50;1.00
56137;DHT22;42008;52.934;5.884;2023-03-12T07:50:12;3.90;12.00
56137;DHT22;42008;52.934;5.884;2023-03-12T07:52:37;3.80;86.90
56137;DHT22;42008;52.934;5.884;2023-03-12T07:55:03;4.10;91.50
56137;DHT22;42008;52.934;5.884;2023-03-12T07:57:29;4.20;99.90
56137;DHT22;42008;52.934;5.884;2023-03-12T07:59:55;3.80;99.90
56137;DHT22;42008;52.934;5.884;2023-03-12T08:02:20;3.90;99.90
56137;DHT22;42008;52.934;5.884;2023-03-12T08:04:46;3.90;99.90
56137;DHT22;42008;52.934;5.884;2023-03-12T08:07:12;3.90;99.90
56137;DHT22;42008;52.934;5.884;2023-03-12T08:09:38;4.10;99.90
56137;DHT22;42008;52.934;5.884;2023-03-12T08:12:05;3.90;99.90
56137;DHT22;42008;52.934;5.884;2023-03-12T08:14:31;3.60;99.90
56137;DHT22;42008;52.934;5.884;2023-03-12T08:17:00;3.90;99.90
56137;DHT22;42008;52.934;5.884;2023-03-12T08:19:26;3.70;99.90
56137;DHT22;42008;52.934;5.884;2023-03-12T08:21:52;4.00;99.90
56137;DHT22;42008;52.934;5.884;2023-03-12T08:24:19;4.20;99.90
56137;DHT22;42008;52.934;5.884;2023-03-12T08:26:45;4.70;1.00
56137;DHT22;42008;52.934;5.884;2023-03-12T08:29:11;3.70;1.00
56137;DHT22;42008;52.934;5.884;2023-03-12T08:31:36;4.30;1.00
56137;DHT22;42008;52.934;5.884;2023-03-12T08:34:02;4.10;1.00
56137;DHT22;42008;52.934;5.884;2023-03-12T08:36:28;4.00;1.00
56137;DHT22;42008;52.934;5.884;2023-03-12T08:38:53;4.90;5.60
56137;DHT22;42008;52.934;5.884;2023-03-12T08:41:19;4.80;43.00
56137;DHT22;42008;52.934;5.884;2023-03-12T08:43:44;4.80;99.90
56137;DHT22;42008;52.934;5.884;2023-03-12T08:46:11;5.00;99.90
56137;DHT22;42008;52.934;5.884;2023-03-12T08:48:37;3.60;99.90
56137;DHT22;42008;52.934;5.884;2023-03-12T08:51:03;3.70;99.90
56137;DHT22;42008;52.934;5.884;2023-03-12T08:53:31;5.40;99.90
56137;DHT22;42008;52.934;5.884;2023-03-12T08:55:57;3.70;99.90
56137;DHT22;42008;52.934;5.884;2023-03-12T08:58:23;4.70;99.90
56137;DHT22;42008;52.934;5.884;2023-03-12T09:00:50;5.60;99.90
56137;DHT22;42008;52.934;5.884;2023-03-12T09:03:15;4.20;99.90
56137;DHT22;42008;52.934;5.884;2023-03-12T09:05:41;5.00;1.00
56137;DHT22;42008;52.934;5.884;2023-03-12T09:08:08;5.40;1.00
56137;DHT22;42008;52.934;5.884;2023-03-12T09:10:35;5.00;1.00
56137;DHT22;42008;52.934;5.884;2023-03-12T09:13:01;4.90;1.00
56137;DHT22;42008;52.934;5.884;2023-03-12T09:15:27;5.10;1.00
56137;DHT22;42008;52.934;5.884;2023-03-12T09:17:53;5.00;1.00
56137;DHT22;42008;52.934;5.884;2023-03-12T09:20:20;5.30;1.00
56137;DHT22;42008;52.934;5.884;2023-03-12T09:22:46;5.50;28.50
56137;DHT22;42008;52.934;5.884;2023-03-12T09:25:12;5.00;94.80
56137;DHT22;42008;52.934;5.884;2023-03-12T09:27:43;5.10;99.90
56137;DHT22;42008;52.934;5.884;2023-03-12T09:30:11;6.30;99.90
56137;DHT22;42008;52.934;5.884;2023-03-12T09:32:37;5.80;99.90
56137;DHT22;42008;52.934;5.884;2023-03-12T09:35:05;4.90;99.90
56137;DHT22;42008;52.934;5.884;2023-03-12T09:37:31;5.90;99.90
56137;DHT22;42008;52.934;5.884;2023-03-12T09:39:59;5.40;99.90
56137;DHT22;42008;52.934;5.884;2023-03-12T09:45:05;5.40;99.90
56137;DHT22;42008;52.934;5.884;2023-03-12T09:47:54;6.20;99.90
56137;DHT22;42008;52.934;5.884;2023-03-12T09:50:30;6.60;99.90
56137;DHT22;42008;52.934;5.884;2023-03-12T09:53:27;5.50;99.90
56137;DHT22;42008;52.934;5.884;2023-03-12T09:55:58;6.00;99.90
56137;DHT22;42008;52.934;5.884;2023-03-12T10:06:22;6.30;99.90
56137;DHT22;42008;52.934;5.884;2023-03-12T10:09:16;6.20;99.90
56137;DHT22;42008;52.934;5.884;2023-03-12T10:12:16;5.90;99.90
56137;DHT22;42008;52.934;5.884;2023-03-12T10:15:02;6.40;99.90
56137;DHT22;42008;52.934;5.884;2023-03-12T10:18:14;7.00;99.90
56137;DHT22;42008;52.934;5.884;2023-03-12T10:20:48;6.00;99.90
56137;DHT22;42008;52.934;5.884;2023-03-12T10:25:57;6.80;99.90
56137;DHT22;42008;52.934;5.884;2023-03-12T10:28:41;7.20;99.90
56137;DHT22;42008;52.934;5.884;2023-03-12T10:33:55;7.50;99.90
56137;DHT22;42008;52.934;5.884;2023-03-12T10:36:28;7.50;99.90
56137;DHT22;42008;52.934;5.884;2023-03-12T10:38:58;7.10;99.90
56137;DHT22;42008;52.934;5.884;2023-03-12T10:41:28;7.50;99.90
56137;DHT22;42008;52.934;5.884;2023-03-12T10:43:56;8.40;99.90
56137;DHT22;42008;52.934;5.884;2023-03-12T10:46:42;8.10;99.90
56137;DHT22;42008;52.934;5.884;2023-03-12T10:49:37;7.80;99.90
56137;DHT22;42008;52.934;5.884;2023-03-12T10:52:14;7.30;99.90
56137;DHT22;42008;52.934;5.884;2023-03-12T10:54:43;8.70;99.90
56137;DHT22;42008;52.934;5.884;2023-03-12T10:57:11;8.70;99.90
56137;DHT22;42008;52.934;5.884;2023-03-12T10:59:39;7.60;99.90
56137;DHT22;42008;52.934;5.884;2023-03-12T11:04:53;7.40;99.90
56137;DHT22;42008;52.934;5.884;2023-03-12T11:07:26;8.70;99.90
56137;DHT22;42008;52.934;5.884;2023-03-12T11:10:24;8.40;99.90
56137;DHT22;42008;52.934;5.884;2023-03-12T11:12:56;8.30;99.90
56137;DHT22;42008;52.934;5.884;2023-03-12T11:15:48;8.90;99.90
56137;DHT22;42008;52.934;5.884;2023-03-12T11:18:32;8.90;99.90
56137;DHT22;42008;52.934;5.884;2023-03-12T11:23:33;10.20;99.90
56137;DHT22;42008;52.934;5.884;2023-03-12T11:26:03;9.80;99.90
56137;DHT22;42008;52.934;5.884;2023-03-12T11:28:37;9.70;99.90
56137;DHT22;42008;52.934;5.884;2023-03-12T11:31:09;10.20;99.90
56137;DHT22;42008;52.934;5.884;2023-03-12T11:33:35;10.00;99.90
56137;DHT22;42008;52.934;5.884;2023-03-12T11:39:15;11.20;99.90
56137;DHT22;42008;52.934;5.884;2023-03-12T11:45:17;11.60;99.90
56137;DHT22;42008;52.934;5.884;2023-03-12T11:50:57;11.60;99.90
56137;DHT22;42008;52.934;5.884;2023-03-12T12:16:22;11.60;99.90
56137;DHT22;42008;52.934;5.884;2023-03-12T12:19:15;11.90;99.90
56137;DHT22;42008;52.934;5.884;2023-03-12T12:24:29;13.90;99.90
56137;DHT22;42008;52.934;5.884;2023-03-12T12:27:04;12.70;99.90
56137;DHT22;42008;52.934;5.884;2023-03-12T12:38:12;13.70;99.90
56137;DHT22;42008;52.934;5.884;2023-03-12T12:40:42;13.10;99.90
56137;DHT22;42008;52.934;5.884;2023-03-12T12:45:56;14.30;99.90
56137;DHT22;42008;52.934;5.884;2023-03-12T12:48:38;12.90;99.90
56137;DHT22;42008;52.934;5.884;2023-03-12T12:51:05;13.60;99.90
56137;DHT22;42008;52.934;5.884;2023-03-12T12:58:56;13.10;99.90
56137;DHT22;42008;52.934;5.884;2023-03-12T13:01:25;13.80;99.90
56137;DHT22;42008;52.934;5.884;2023-03-12T13:03:59;13.00;99.90
56137;DHT22;42008;52.934;5.884;2023-03-12T13:06:27;13.10;99.90
56137;DHT22;42008;52.934;5.884;2023-03-12T13:09:00;14.50;99.90
56137;DHT22;42008;52.934;5.884;2023-03-12T13:11:38;12.40;99.90
56137;DHT22;42008;52.934;5.884;2023-03-12T13:14:13;13.50;99.90
56137;DHT22;42008;52.934;5.884;2023-03-12T13:16:44;14.30;99.90
56137;DHT22;42008;52.934;5.884;2023-03-12T13:24:42;13.40;99.90
56137;DHT22;42008;52.934;5.884;2023-03-12T13:27:24;12.90;99.90
56137;DHT22;42008;52.934;5.884;2023-03-12T13:29:50;13.40;99.90
56137;DHT22;42008;52.934;5.884;2023-03-12T13:34:59;13.70;99.90
56137;DHT22;42008;52.934;5.884;2023-03-12T13:40:51;13.60;99.90
56137;DHT22;42008;52.934;5.884;2023-03-12T13:46:27;13.20;99.90
56137;DHT22;42008;52.934;5.884;2023-03-12T13:48:57;13.10;99.90
56137;DHT22;42008;52.934;5.884;2023-03-12T13:51:24;13.10;99.90
56137;DHT22;42008;52.934;5.884;2023-03-12T13:53:53;14.30;99.90
56137;DHT22;42008;52.934;5.884;2023-03-12T13:56:25;14.40;99.90
56137;DHT22;42008;52.934;5.884;2023-03-12T13:59:06;14.40;99.90
56137;DHT22;42008;52.934;5.884;2023-03-12T14:01:45;14.10;99.90
56137;DHT22;42008;52.934;5.884;2023-03-12T14:04:28;13.60;99.90
56137;DHT22;42008;52.934;5.884;2023-03-12T14:07:02;14.10;99.90
56137;DHT22;42008;52.934;5.884;2023-03-12T14:12:16;14.40;99.90
56137;DHT22;42008;52.934;5.884;2023-03-12T14:17:28;13.20;99.90
56137;DHT22;42008;52.934;5.884;2023-03-12T14:20:00;14.00;99.90
56137;DHT22;42008;52.934;5.884;2023-03-12T14:22:31;13.00;99.90
56137;DHT22;42008;52.934;5.884;2023-03-12T14:25:22;12.20;99.90
56137;DHT22;42008;52.934;5.884;2023-03-12T14:27:47;12.80;99.90
56137;DHT22;42008;52.934;5.884;2023-03-12T14:30:22;13.80;99.90
56137;DHT22;42008;52.934;5.884;2023-03-12T14:32:52;13.10;99.90
56137;DHT22;42008;52.934;5.884;2023-03-12T14:35:28;13.30;99.90
56137;DHT22;42008;52.934;5.884;2023-03-12T14:38:13;12.60;99.90
56137;DHT22;42008;52.934;5.884;2023-03-12T14:40:41;12.90;99.90
56137;DHT22;42008;52.934;5.884;2023-03-12T14:43:21;12.70;99.90
56137;DHT22;42008;52.934;5.884;2023-03-12T14:45:59;13.80;99.90
56137;DHT22;42008;52.934;5.884;2023-03-12T14:48:35;12.70;99.90
56137;DHT22;42008;52.934;5.884;2023-03-12T14:51:03;13.20;99.90
56137;DHT22;42008;52.934;5.884;2023-03-12T14:53:31;13.30;99.90
56137;DHT22;42008;52.934;5.884;2023-03-12T14:58:32;12.60;99.90
56137;DHT22;42008;52.934;5.884;2023-03-12T15:01:01;12.70;99.90
56137;DHT22;42008;52.934;5.884;2023-03-12T15:03:28;12.10;99.90
56137;DHT22;42008;52.934;5.884;2023-03-12T15:05:55;13.40;99.90
56137;DHT22;42008;52.934;5.884;2023-03-12T15:08:21;11.60;99.90
56137;DHT22;42008;52.934;5.884;2023-03-12T15:10:50;12.10;99.90
56137;DHT22;42008;52.934;5.884;2023-03-12T15:13:18;11.60;99.90
56137;DHT22;42008;52.934;5.884;2023-03-12T15:15:47;12.40;99.90
56137;DHT22;42008;52.934;5.884;2023-03-12T15:18:16;12.50;99.90
56137;DHT22;42008;52.934;5.884;2023-03-12T15:20:44;11.50;99.90
56137;DHT22;42008;52.934;5.884;2023-03-12T15:23:11;12.30;99.90
56137;DHT22;42008;52.934;5.884;2023-03-12T15:25:39;11.80;99.90
56137;DHT22;42008;52.934;5.884;2023-03-12T15:30:33;12.40;99.90
56137;DHT22;42008;52.934;5.884;2023-03-12T15:33:22;10.80;99.90
56137;DHT22;42008;52.934;5.884;2023-03-12T15:38:50;11.70;99.90
56137;DHT22;42008;52.934;5.884;2023-03-12T15:41:25;12.50;99.90
56137;DHT22;42008;52.934;5.884;2023-03-12T15:43:54;12.30;99.90
56137;DHT22;42008;52.934;5.884;2023-03-12T15:46:21;12.20;99.90
56137;DHT22;42008;52.934;5.884;2023-03-12T15:48:58;12.00;23.60
56137;DHT22;42008;52.934;5.884;2023-03-12T15:51:33;11.80;1.00
56137;DHT22;42008;52.934;5.884;2023-03-12T15:56:38;11.20;99.90
56137;DHT22;42008;52.934;5.884;2023-03-12T15:59:24;11.80;99.90
56137;DHT22;42008;52.934;5.884;2023-03-12T16:01:52;11.20;99.90
56137;DHT22;42008;52.934;5.884;2023-03-12T16:04:19;11.80;99.90
56137;DHT22;42008;52.934;5.884;2023-03-12T16:06:45;11.50;99.90
56137;DHT22;42008;52.934;5.884;2023-03-12T16:09:24;11.40;99.90
56137;DHT22;42008;52.934;5.884;2023-03-12T16:11:51;11.20;99.90
56137;DHT22;42008;52.934;5.884;2023-03-12T16:14:27;11.50;99.90
56137;DHT22;42008;52.934;5.884;2023-03-12T16:16:53;11.10;99.90
56137;DHT22;42008;52.934;5.884;2023-03-12T16:19:20;11.10;99.90
56137;DHT22;42008;52.934;5.884;2023-03-12T16:21:47;10.10;99.90
56137;DHT22;42008;52.934;5.884;2023-03-12T16:24:13;10.90;99.90
56137;DHT22;42008;52.934;5.884;2023-03-12T16:26:48;11.10;99.90
56137;DHT22;42008;52.934;5.884;2023-03-12T16:29:16;9.70;99.90
56137;DHT22;42008;52.934;5.884;2023-03-12T16:31:43;10.30;99.90
56137;DHT22;42008;52.934;5.884;2023-03-12T16:34:10;10.70;99.90
56137;DHT22;42008;52.934;5.884;2023-03-12T16:36:36;9.50;99.90
56137;DHT22;42008;52.934;5.884;2023-03-12T16:39:01;10.00;99.90
56137;DHT22;42008;52.934;5.884;2023-03-12T16:41:27;10.80;99.90
56137;DHT22;42008;52.934;5.884;2023-03-12T16:43:53;9.60;99.90
56137;DHT22;42008;52.934;5.884;2023-03-12T16:46:20;10.00;99.90
56137;DHT22;42008;52.934;5.884;2023-03-12T16:48:50;9.40;99.90
56137;DHT22;42008;52.934;5.884;2023-03-12T16:51:17;9.50;99.90
56137;DHT22;42008;52.934;5.884;2023-03-12T16:53:43;9.80;99.90
56137;DHT22;42008;52.934;5.884;2023-03-12T16:56:17;10.40;99.90
56137;DHT22;42008;52.934;5.884;2023-03-12T16:58:44;10.50;99.90
56137;DHT22;42008;52.934;5.884;2023-03-12T17:01:12;9.70;99.90
56137;DHT22;42008;52.934;5.884;2023-03-12T17:03:40;9.40;99.90
56137;DHT22;42008;52.934;5.884;2023-03-12T17:06:14;10.00;99.90
56137;DHT22;42008;52.934;5.884;2023-03-12T17:08:40;9.80;99.90
56137;DHT22;42008;52.934;5.884;2023-03-12T17:11:20;10.30;99.90
56137;DHT22;42008;52.934;5.884;2023-03-12T17:13:50;10.30;99.90
56137;DHT22;42008;52.934;5.884;2023-03-12T17:16:16;9.80;99.90
56137;DHT22;42008;52.934;5.884;2023-03-12T17:18:42;10.20;99.90
56137;DHT22;42008;52.934;5.884;2023-03-12T17:21:17;9.70;99.90
56137;DHT22;42008;52.934;5.884;2023-03-12T17:23:45;10.00;99.90
56137;DHT22;42008;52.934;5.884;2023-03-12T17:26:11;9.60;1.00
56137;DHT22;42008;52.934;5.884;2023-03-12T17:28:37;9.50;1.00
56137;DHT22;42008;52.934;5.884;2023-03-12T17:31:03;9.80;1.00
56137;DHT22;42008;52.934;5.884;2023-03-12T17:33:28;10.20;1.00
56137;DHT22;42008;52.934;5.884;2023-03-12T17:36:06;10.10;1.00
56137;DHT22;42008;52.934;5.884;2023-03-12T17:38:32;10.60;1.00
56137;DHT22;42008;52.934;5.884;2023-03-12T17:40:59;9.80;1.00
56137;DHT22;42008;52.934;5.884;2023-03-12T17:43:24;10.10;99.90
56137;DHT22;42008;52.934;5.884;2023-03-12T17:45:51;9.50;99.90
56137;DHT22;42008;52.934;5.884;2023-03-12T17:48:17;11.00;99.90